Time;durP1;ratioP1;P1;durP2;ratioP2;P2;SDS_P1;SDS_P2;PMS_P1;PMS_P2;Temp;Humidity;BMP_temperature;BMP_pressure;BME280_temperature;BME280_humidity;BME280_pressure;Samples;Min_cycle;Max_cycle;Signal;HPM_P1;HPM_P2
2022/07/01 00:00:47;;;;;;;10.60;7.93;;;14.30;99.90;;;;;;5092891;28;20027;-60
2022/07/01 00:03:13;;;;;;;9.20;7.30;;;14.30;99.90;;;;;;5092506;28;20509;-60
2022/07/01 00:05:38;;;;;;;16.00;8.02;;;14.40;99.90;;;;;;5096998;28;20032;-58
2022/07/01 00:08:04;;;;;;;11.52;7.88;;;14.30;99.90;;;;;;5113039;28;20106;-60
2022/07/01 00:10:30;;;;;;;10.95;7.07;;;14.30;99.90;;;;;;5113096;28;20035;-60
2022/07/01 00:12:56;;;;;;;9.70;6.22;;;14.30;99.90;;;;;;5112523;28;20031;-60
2022/07/01 00:15:22;;;;;;;11.15;6.78;;;14.30;99.90;;;;;;5112800;28;20030;-59
2022/07/01 00:17:48;;;;;;;12.63;7.80;;;14.30;99.90;;;;;;5112801;28;20443;-59
2022/07/01 00:20:14;;;;;;;16.65;7.28;;;14.30;99.90;;;;;;5109400;28;20020;-59
2022/07/01 00:22:40;;;;;;;11.18;6.57;;;14.30;99.90;;;;;;5092046;28;20074;-59
2022/07/01 00:25:07;;;;;;;14.02;7.22;;;14.30;99.90;;;;;;5092277;28;20063;-59
2022/07/01 00:27:36;;;;;;;11.07;7.07;;;14.30;99.90;;;;;;5092072;28;20506;-59
2022/07/01 00:30:01;;;;;;;10.77;6.63;;;14.20;99.90;;;;;;5092124;28;20020;-59
2022/07/01 00:32:27;;;;;;;20.33;7.57;;;14.30;99.90;;;;;;5091654;28;20040;-59
2022/07/01 00:34:52;;;;;;;21.40;7.43;;;14.20;99.90;;;;;;5091730;28;20032;-58
2022/07/01 00:37:18;;;;;;;16.63;6.88;;;14.30;99.90;;;;;;5091995;28;20028;-58
2022/07/01 00:39:43;;;;;;;16.30;7.65;;;14.30;99.90;;;;;;5091871;28;20024;-58
2022/07/01 00:42:09;;;;;;;13.38;7.25;;;14.20;99.90;;;;;;5091320;28;20032;-58
2022/07/01 00:44:34;;;;;;;12.88;7.43;;;14.20;99.90;;;;;;5091800;28;20493;-59
2022/07/01 00:47:03;;;;;;;11.45;7.25;;;14.20;99.90;;;;;;5091688;28;20541;-59
2022/07/01 00:49:29;;;;;;;10.82;7.30;;;14.30;99.90;;;;;;5099762;28;20405;-59
2022/07/01 00:51:55;;;;;;;14.98;7.13;;;14.20;99.90;;;;;;5111716;28;20031;-59
2022/07/01 00:54:21;;;;;;;13.65;7.20;;;14.30;99.90;;;;;;5110323;28;20540;-58
2022/07/01 00:56:48;;;;;;;14.57;7.30;;;14.20;99.90;;;;;;5111730;28;20028;-58
2022/07/01 00:59:14;;;;;;;13.88;7.82;;;14.20;99.90;;;;;;5111863;28;20020;-58
2022/07/01 01:01:40;;;;;;;14.55;8.40;;;14.20;99.90;;;;;;5111308;28;20024;-59
2022/07/01 01:04:05;;;;;;;19.00;8.50;;;14.20;99.90;;;;;;5111754;28;20052;-57
2022/07/01 01:06:31;;;;;;;13.30;8.20;;;14.20;99.90;;;;;;5111929;28;20027;-56
2022/07/01 01:08:57;;;;;;;16.10;8.20;;;14.20;99.90;;;;;;5101973;28;20036;-60
2022/07/01 01:11:22;;;;;;;17.30;8.52;;;14.20;99.90;;;;;;5091093;28;20024;-60
2022/07/01 01:13:48;;;;;;;16.02;8.65;;;14.20;99.90;;;;;;5091916;28;20028;-59
2022/07/01 01:16:21;;;;;;;11.80;8.02;;;14.20;99.90;;;;;;5091974;28;20024;-58
2022/07/01 01:18:46;;;;;;;15.52;7.85;;;14.20;99.90;;;;;;5091902;28;20097;-58
2022/07/01 01:21:12;;;;;;;13.77;8.20;;;14.20;99.90;;;;;;5091646;28;20490;-59
2022/07/01 01:23:38;;;;;;;17.60;9.07;;;14.20;99.90;;;;;;5091834;28;20062;-59
2022/07/01 01:26:03;;;;;;;16.45;9.10;;;14.30;99.90;;;;;;5091580;28;20035;-59
2022/07/01 01:28:29;;;;;;;20.98;11.13;;;14.20;99.90;;;;;;5091084;28;20032;-59
2022/07/01 01:30:55;;;;;;;15.02;8.70;;;14.20;99.90;;;;;;5091719;28;20080;-59
2022/07/01 01:33:20;;;;;;;18.75;9.80;;;14.20;99.90;;;;;;5072885;28;20040;-59
2022/07/01 01:35:46;;;;;;;17.95;10.77;;;14.20;99.90;;;;;;5091636;28;20385;-58
2022/07/01 01:38:12;;;;;;;18.95;10.45;;;14.20;99.90;;;;;;5106445;28;20024;-59
2022/07/01 01:40:37;;;;;;;16.60;10.38;;;14.20;99.90;;;;;;5111925;28;20020;-58
2022/07/01 01:43:03;;;;;;;16.88;9.95;;;14.30;99.90;;;;;;5111632;28;20028;-57
2022/07/01 01:45:28;;;;;;;17.60;10.27;;;14.20;99.90;;;;;;5112016;28;20035;-59
2022/07/01 01:47:54;;;;;;;21.70;10.10;;;14.20;99.90;;;;;;5111888;28;20028;-58
2022/07/01 01:50:20;;;;;;;15.68;10.63;;;14.20;99.90;;;;;;5111868;28;20048;-59
2022/07/01 01:52:46;;;;;;;21.92;10.23;;;14.30;99.90;;;;;;5097954;28;20052;-58
2022/07/01 01:55:13;;;;;;;25.40;10.00;;;14.30;99.90;;;;;;5073040;28;20060;-57
2022/07/01 01:57:38;;;;;;;21.10;9.52;;;14.20;99.90;;;;;;5091334;28;20500;-58
2022/07/01 02:00:07;;;;;;;13.68;8.02;;;14.30;99.90;;;;;;5073393;28;20114;-58
2022/07/01 02:02:36;;;;;;;15.40;9.40;;;14.30;99.90;;;;;;5109992;28;20023;-59
2022/07/01 02:05:03;;;;;;;17.23;8.45;;;14.20;99.90;;;;;;5095955;28;20473;-60
2022/07/01 02:07:28;;;;;;;16.27;8.93;;;14.10;99.90;;;;;;5091554;28;20127;-59
2022/07/01 02:09:54;;;;;;;11.40;7.47;;;14.10;99.90;;;;;;5091365;28;20112;-59
2022/07/01 02:12:19;;;;;;;13.07;7.40;;;14.10;99.90;;;;;;5091003;28;20032;-59
2022/07/01 02:14:45;;;;;;;9.52;6.07;;;14.20;99.90;;;;;;5091035;28;20043;-57
2022/07/01 02:17:10;;;;;;;10.57;6.80;;;14.10;99.90;;;;;;5091371;28;20027;-59
2022/07/01 02:19:36;;;;;;;9.45;7.22;;;14.10;99.90;;;;;;5091378;28;20561;-59
2022/07/01 02:22:01;;;;;;;12.27;7.03;;;14.10;99.90;;;;;;5090918;28;20390;-60
2022/07/01 02:24:27;;;;;;;20.38;7.30;;;14.10;99.90;;;;;;5091310;28;20024;-60
2022/07/01 02:26:53;;;;;;;12.75;6.65;;;14.10;99.90;;;;;;5091165;28;20460;-58
2022/07/01 02:29:18;;;;;;;10.60;6.07;;;14.00;99.90;;;;;;5095386;28;20027;-59
2022/07/01 02:31:44;;;;;;;8.27;4.97;;;14.00;99.90;;;;;;5111171;28;20114;-59
2022/07/01 02:34:09;;;;;;;7.38;4.97;;;13.90;99.90;;;;;;5111432;28;20024;-57
2022/07/01 02:36:35;;;;;;;10.68;5.75;;;14.00;99.90;;;;;;5111445;28;20047;-59
2022/07/01 02:39:00;;;;;;;8.57;5.40;;;13.90;99.90;;;;;;5111497;28;20099;-59
2022/07/01 02:41:26;;;;;;;10.25;6.40;;;13.90;99.90;;;;;;5113732;28;20408;-57
2022/07/01 02:43:51;;;;;;;13.48;6.07;;;13.90;99.90;;;;;;5104983;28;20082;-58
2022/07/01 02:46:17;;;;;;;10.18;5.65;;;13.90;99.90;;;;;;5094814;28;20040;-58
2022/07/01 02:48:43;;;;;;;8.85;5.80;;;13.80;99.90;;;;;;5094729;28;20107;-59
2022/07/01 02:51:08;;;;;;;8.63;5.43;;;13.90;99.90;;;;;;5094708;28;20119;-57
2022/07/01 02:53:34;;;;;;;7.25;5.30;;;13.90;99.90;;;;;;5094380;28;20024;-58
2022/07/01 02:55:59;;;;;;;8.05;5.43;;;13.80;99.90;;;;;;5095556;28;20074;-58
2022/07/01 02:58:25;;;;;;;10.85;5.63;;;13.90;99.90;;;;;;5094603;28;20530;-58
2022/07/01 03:00:52;;;;;;;12.77;5.47;;;13.90;99.90;;;;;;5094427;28;20020;-60
2022/07/01 03:03:18;;;;;;;6.30;4.72;;;13.90;99.90;;;;;;5094230;28;20099;-59
2022/07/01 03:05:44;;;;;;;12.65;4.85;;;13.90;99.90;;;;;;5076517;28;20453;-58
2022/07/01 03:08:09;;;;;;;7.55;5.10;;;13.80;99.90;;;;;;5097004;28;20384;-59
2022/07/01 03:10:35;;;;;;;11.48;6.45;;;13.90;99.90;;;;;;5114652;28;20041;-56
2022/07/01 03:13:01;;;;;;;9.68;5.65;;;13.80;99.90;;;;;;5114332;28;20484;-59
2022/07/01 03:15:27;;;;;;;12.25;4.97;;;13.80;99.90;;;;;;5114641;28;20027;-58
2022/07/01 03:17:53;;;;;;;9.68;5.40;;;13.70;99.90;;;;;;5114631;28;20535;-60
2022/07/01 03:20:18;;;;;;;10.20;5.55;;;13.70;99.90;;;;;;5114518;28;20054;-59
2022/07/01 03:22:45;;;;;;;12.10;5.47;;;13.70;99.90;;;;;;5112378;28;20478;-59
2022/07/01 03:25:11;;;;;;;6.78;4.90;;;13.70;99.90;;;;;;5093586;28;20027;-59
2022/07/01 03:27:38;;;;;;;9.82;5.00;;;13.70;99.90;;;;;;5094028;28;20020;-59
2022/07/01 03:30:05;;;;;;;7.15;3.72;;;13.70;99.90;;;;;;5093960;28;20027;-58
2022/07/01 03:32:31;;;;;;;9.63;4.60;;;13.70;99.90;;;;;;5093597;28;20026;-58
2022/07/01 03:34:57;;;;;;;7.57;4.47;;;13.70;99.90;;;;;;5093288;28;20102;-59
2022/07/01 03:37:22;;;;;;;7.13;4.72;;;13.70;99.90;;;;;;5101167;28;20016;-59
2022/07/01 03:39:49;;;;;;;6.22;4.18;;;13.70;99.90;;;;;;5114115;28;20028;-57
2022/07/01 03:42:15;;;;;;;8.95;4.78;;;13.80;99.90;;;;;;5125742;22;20067;-67
2022/07/01 03:44:41;;;;;;;8.23;4.07;;;13.80;99.90;;;;;;5091918;28;20012;-67
2022/07/01 03:47:07;;;;;;;12.75;4.53;;;13.70;99.90;;;;;;5092547;28;20031;-67
2022/07/01 03:49:33;;;;;;;10.40;5.03;;;13.70;99.90;;;;;;5091756;28;20068;-67
2022/07/01 03:51:59;;;;;;;8.52;4.68;;;13.80;99.90;;;;;;5091666;28;20035;-67
2022/07/01 03:54:32;;;;;;;5.55;3.90;;;13.70;99.90;;;;;;5092089;28;20024;-66
2022/07/01 03:56:59;;;;;;;8.20;4.90;;;13.80;99.90;;;;;;5091529;28;20081;-66
2022/07/01 03:59:25;;;;;;;6.25;3.95;;;13.80;99.90;;;;;;5091984;28;20023;-67
2022/07/01 04:01:52;;;;;;;6.45;4.32;;;13.70;99.90;;;;;;5091491;28;20038;-67
2022/07/01 04:04:17;;;;;;;5.82;4.72;;;13.70;99.90;;;;;;5091700;28;20020;-67
2022/07/01 04:06:44;;;;;;;6.15;4.28;;;13.70;99.90;;;;;;5090967;28;20371;-67
2022/07/01 04:09:12;;;;;;;6.93;4.38;;;13.60;99.90;;;;;;5091742;28;20027;-66
2022/07/01 04:11:37;;;;;;;10.43;5.07;;;13.60;99.90;;;;;;5090880;28;20444;-67
2022/07/01 04:14:03;;;;;;;13.13;4.85;;;13.60;99.90;;;;;;5091570;28;20024;-66
2022/07/01 04:16:29;;;;;;;6.25;4.60;;;13.60;99.90;;;;;;5092091;28;20036;-66
2022/07/01 04:18:55;;;;;;;9.52;5.25;;;13.60;99.90;;;;;;5091448;28;20041;-66
2022/07/01 04:24:06;;;;;;;10.52;5.07;;;13.70;99.90;;;;;;5091326;28;20025;-66
2022/07/01 04:26:32;;;;;;;8.98;5.32;;;13.70;99.90;;;;;;5092728;28;20024;-66
2022/07/01 04:28:58;;;;;;;8.18;4.82;;;13.80;99.90;;;;;;5091283;28;20032;-66
2022/07/01 04:31:23;;;;;;;7.53;4.38;;;13.90;99.90;;;;;;5090371;28;20036;-66
2022/07/01 04:33:49;;;;;;;5.45;3.70;;;14.00;99.90;;;;;;5091431;28;20362;-66
2022/07/01 04:36:15;;;;;;;9.00;3.60;;;13.90;99.90;;;;;;5090731;28;20583;-66
2022/07/01 04:38:41;;;;;;;4.53;3.13;;;14.00;99.90;;;;;;5091154;28;20119;-66
2022/07/01 04:43:50;;;;;;;6.32;3.42;;;14.10;99.90;;;;;;5090642;28;20039;-67
2022/07/01 04:46:16;;;;;;;16.30;4.47;;;14.10;99.90;;;;;;5090684;28;20028;-67
2022/07/01 04:48:42;;;;;;;6.22;3.50;;;14.10;99.90;;;;;;5091582;28;20058;-67
2022/07/01 04:51:07;;;;;;;6.32;3.72;;;14.10;99.90;;;;;;5110758;28;20113;-67
2022/07/01 04:53:33;;;;;;;9.50;3.60;;;14.00;99.90;;;;;;5110411;28;20019;-67
2022/07/01 04:55:59;;;;;;;6.25;3.20;;;14.00;99.90;;;;;;5109044;28;20023;-67
2022/07/01 04:58:24;;;;;;;9.55;3.50;;;14.00;99.90;;;;;;5110706;28;20051;-67
2022/07/01 05:00:51;;;;;;;9.32;4.03;;;14.00;99.90;;;;;;5110359;28;20053;-67
2022/07/01 05:03:16;;;;;;;5.22;3.15;;;13.90;99.90;;;;;;5109102;28;20051;-67
2022/07/01 05:05:42;;;;;;;10.77;3.75;;;14.00;99.90;;;;;;5110596;28;20054;-67
2022/07/01 05:08:08;;;;;;;10.93;4.32;;;14.00;99.90;;;;;;5107909;28;20063;-67
2022/07/01 05:10:34;;;;;;;6.85;4.45;;;14.00;99.90;;;;;;5090035;28;20071;-67
2022/07/01 05:12:59;;;;;;;7.88;4.45;;;14.00;99.90;;;;;;5089705;28;20066;-67
2022/07/01 05:15:25;;;;;;;7.53;4.93;;;14.10;99.90;;;;;;5090211;28;20111;-67
2022/07/01 05:23:23;;;;;;;14.18;4.53;;;14.10;99.90;;;;;;5096110;28;20049;-67
2022/07/01 05:25:49;;;;;;;9.57;4.93;;;14.20;99.90;;;;;;5108116;28;20036;-67
2022/07/01 05:28:14;;;;;;;9.32;4.25;;;14.20;99.90;;;;;;5089788;28;20035;-67
2022/07/01 05:30:40;;;;;;;15.20;4.10;;;14.30;99.90;;;;;;5089804;28;20438;-67
2022/07/01 05:33:05;;;;;;;5.50;3.35;;;14.30;99.90;;;;;;5089554;28;20032;-67
2022/07/01 05:35:31;;;;;;;10.02;3.53;;;14.40;99.90;;;;;;5089559;28;20031;-67
2022/07/01 05:37:57;;;;;;;6.45;3.10;;;14.50;99.90;;;;;;5089742;28;20402;-67
2022/07/01 05:40:23;;;;;;;10.27;2.60;;;14.50;99.90;;;;;;5072800;28;20031;-67
2022/07/01 05:42:48;;;;;;;5.63;2.72;;;14.50;99.90;;;;;;5069032;28;20024;-67
2022/07/01 05:45:14;;;;;;;8.30;2.83;;;14.60;99.90;;;;;;5069520;28;20029;-67
2022/07/01 05:47:40;;;;;;;6.40;2.72;;;14.60;99.90;;;;;;5069562;28;20074;-67
2022/07/01 05:50:06;;;;;;;3.10;2.00;;;14.50;99.90;;;;;;5069396;28;20055;-67
2022/07/01 05:52:32;;;;;;;4.38;2.47;;;14.60;99.90;;;;;;5081449;28;20027;-67
2022/07/01 05:54:57;;;;;;;5.90;2.17;;;14.60;99.90;;;;;;5089797;28;20474;-67
2022/07/01 05:57:23;;;;;;;7.95;2.30;;;14.70;99.90;;;;;;5099031;28;20103;-67
2022/07/01 05:59:48;;;;;;;11.90;2.97;;;14.70;99.90;;;;;;5110032;28;20026;-67
2022/07/01 06:02:14;;;;;;;5.80;2.15;;;14.80;99.90;;;;;;5102687;28;20374;-67
2022/07/01 06:04:41;;;;;;;11.35;2.28;;;14.90;99.90;;;;;;5108132;28;20028;-67
2022/07/01 06:07:07;;;;;;;2.80;2.13;;;14.90;99.90;;;;;;5110293;28;20464;-66
2022/07/01 06:09:32;;;;;;;5.03;2.58;;;15.00;99.90;;;;;;5109416;28;20028;-67
2022/07/01 06:11:58;;;;;;;3.75;2.17;;;15.10;99.90;;;;;;5109647;28;20035;-67
2022/07/01 06:14:23;;;;;;;7.22;2.47;;;15.10;99.90;;;;;;5109507;28;20092;-67
2022/07/01 06:16:49;;;;;;;9.27;2.30;;;15.10;99.90;;;;;;5113428;28;20502;-67
2022/07/01 06:19:14;;;;;;;4.78;2.80;;;15.20;99.90;;;;;;5113812;28;20032;-67
2022/07/01 06:21:40;;;;;;;4.95;2.53;;;15.10;99.90;;;;;;5113062;28;20023;-67
2022/07/01 06:24:05;;;;;;;6.88;2.08;;;15.20;99.90;;;;;;5113799;28;20620;-66
2022/07/01 06:26:31;;;;;;;6.10;2.40;;;15.10;99.90;;;;;;5113784;28;20063;-66
2022/07/01 06:28:56;;;;;;;9.30;2.42;;;15.30;99.90;;;;;;5101780;28;20063;-67
2022/07/01 06:31:23;;;;;;;6.65;2.40;;;15.30;99.90;;;;;;5092969;28;20076;-66
2022/07/01 06:33:49;;;;;;;11.63;2.58;;;15.40;99.90;;;;;;5092958;28;20567;-67
2022/07/01 06:36:16;;;;;;;5.22;2.40;;;15.50;99.90;;;;;;5092524;28;20054;-67
2022/07/01 06:38:41;;;;;;;4.15;2.28;;;15.60;99.90;;;;;;5092909;28;20050;-67
2022/07/01 06:43:51;;;;;;;2.88;2.13;;;15.80;99.90;;;;;;5093225;28;20495;-67
2022/07/01 06:46:16;;;;;;;3.25;2.33;;;15.80;99.90;;;;;;5093055;28;20064;-66
2022/07/01 06:48:42;;;;;;;6.35;3.03;;;15.90;99.90;;;;;;5092527;28;20072;-66
2022/07/01 06:51:08;;;;;;;2.92;2.05;;;15.70;99.90;;;;;;5092822;28;20080;-67
2022/07/01 06:53:33;;;;;;;3.30;1.83;;;15.80;99.90;;;;;;5092634;28;20031;-67
2022/07/01 06:55:59;;;;;;;8.93;2.17;;;15.80;99.90;;;;;;5093599;28;20485;-67
2022/07/01 06:58:24;;;;;;;2.95;1.85;;;15.90;99.90;;;;;;5092555;28;20507;-67
2022/07/01 07:00:50;;;;;;;4.55;2.20;;;15.90;99.90;;;;;;5092730;28;20028;-67
2022/07/01 07:03:15;;;;;;;2.83;1.90;;;15.90;99.90;;;;;;5092137;28;20231;-67
2022/07/01 07:05:41;;;;;;;6.57;2.65;;;15.90;99.90;;;;;;5092110;28;20035;-67
2022/07/01 07:08:06;;;;;;;5.68;2.40;;;15.70;99.90;;;;;;5092444;28;20844;-67
2022/07/01 07:10:32;;;;;;;6.82;2.67;;;15.70;99.90;;;;;;5092502;28;20374;-67
2022/07/01 07:12:58;;;;;;;4.18;2.20;;;15.60;99.90;;;;;;5092353;28;20051;-67
2022/07/01 07:15:23;;;;;;;3.13;1.95;;;15.50;99.90;;;;;;5092910;28;20482;-67
2022/07/01 07:17:49;;;;;;;3.45;1.60;;;15.50;99.90;;;;;;5093299;28;20051;-67
2022/07/01 07:20:14;;;;;;;10.02;2.50;;;15.60;99.90;;;;;;5092848;28;20098;-67
2022/07/01 07:22:40;;;;;;;2.95;2.00;;;15.60;99.90;;;;;;5092112;28;20020;-67
2022/07/01 07:25:06;;;;;;;4.22;2.28;;;15.70;99.90;;;;;;5103751;28;20032;-67
2022/07/01 07:27:31;;;;;;;2.47;1.83;;;15.70;99.90;;;;;;5092048;28;20028;-67
2022/07/01 07:29:57;;;;;;;2.78;1.92;;;15.70;99.90;;;;;;5092871;28;20016;-67
2022/07/01 07:32:22;;;;;;;3.08;1.70;;;15.70;99.90;;;;;;5092349;28;20513;-67
2022/07/01 07:34:48;;;;;;;3.83;1.88;;;15.90;99.90;;;;;;5093246;28;20035;-67
2022/07/01 07:37:13;;;;;;;7.10;2.17;;;16.00;99.90;;;;;;5098693;28;20106;-67
2022/07/01 07:39:39;;;;;;;5.07;2.22;;;16.10;99.90;;;;;;5090705;28;20440;-67
2022/07/01 07:42:05;;;;;;;3.75;2.10;;;16.10;99.90;;;;;;5071783;28;20054;-67
2022/07/01 07:44:31;;;;;;;7.32;2.83;;;16.10;99.90;;;;;;5072197;28;20020;-67
2022/07/01 07:46:56;;;;;;;7.22;2.55;;;16.20;99.90;;;;;;5071864;28;20047;-67
2022/07/01 07:49:24;;;;;;;4.45;2.33;;;16.40;99.90;;;;;;5072273;28;20032;-66
2022/07/01 07:51:50;;;;;;;3.58;1.83;;;16.40;99.90;;;;;;5082324;28;20031;-67
2022/07/01 07:54:15;;;;;;;4.80;2.10;;;16.50;99.90;;;;;;5111633;28;20020;-67
2022/07/01 07:56:41;;;;;;;2.40;1.80;;;16.50;99.90;;;;;;5092082;28;20108;-67
2022/07/01 07:59:07;;;;;;;2.92;1.67;;;16.60;99.90;;;;;;5092112;28;20020;-66
2022/07/01 08:01:32;;;;;;;2.15;1.75;;;16.60;99.90;;;;;;5091361;28;20520;-67
2022/07/01 08:03:58;;;;;;;4.38;1.88;;;16.50;99.90;;;;;;5092007;28;20028;-67
2022/07/01 08:06:24;;;;;;;4.03;2.42;;;16.40;99.90;;;;;;5091739;28;20066;-68
2022/07/01 08:08:49;;;;;;;8.50;1.85;;;16.30;99.90;;;;;;5091906;28;20035;-67
2022/07/01 08:11:15;;;;;;;5.97;2.17;;;16.30;99.90;;;;;;5091625;28;20028;-67
2022/07/01 08:13:40;;;;;;;9.50;2.63;;;16.40;99.90;;;;;;5091674;28;20062;-67
2022/07/01 08:16:07;;;;;;;3.72;1.60;;;16.50;99.90;;;;;;5091725;28;20089;-67
2022/07/01 08:18:32;;;;;;;4.05;2.30;;;16.50;99.90;;;;;;5091272;28;20031;-67
2022/07/01 08:20:58;;;;;;;10.00;2.33;;;16.60;99.90;;;;;;5091493;28;20028;-67
2022/07/01 08:23:23;;;;;;;7.97;2.42;;;16.70;99.90;;;;;;5091501;28;20042;-67
2022/07/01 08:25:50;;;;;;;6.95;2.17;;;16.80;99.90;;;;;;5091221;28;20120;-67
2022/07/01 08:28:16;;;;;;;10.90;1.80;;;16.90;99.90;;;;;;5091818;28;20028;-68
2022/07/01 08:30:42;;;;;;;3.95;2.35;;;17.00;99.90;;;;;;5091384;28;20016;-67
2022/07/01 08:33:07;;;;;;;3.97;2.15;;;17.10;99.90;;;;;;5091168;28;20034;-67
2022/07/01 08:35:33;;;;;;;5.85;2.08;;;17.00;99.90;;;;;;5106081;28;20064;-67
2022/07/01 08:37:59;;;;;;;4.18;1.45;;;17.00;99.90;;;;;;5111771;28;20081;-67
2022/07/01 08:40:29;;;;;;;7.70;1.70;;;17.00;99.90;;;;;;5111873;28;20061;-68
2022/07/01 08:42:56;;;;;;;3.67;2.08;;;17.20;99.90;;;;;;5111089;28;20041;-67
2022/07/01 08:45:24;;;;;;;9.63;1.75;;;17.30;99.90;;;;;;5111445;28;20055;-67
2022/07/01 08:47:52;;;;;;;3.33;1.98;;;17.10;99.90;;;;;;5111128;28;20063;-66
2022/07/01 08:50:18;;;;;;;4.30;1.90;;;17.30;99.90;;;;;;5096045;28;20508;-66
2022/07/01 08:52:43;;;;;;;12.48;2.05;;;17.20;99.90;;;;;;5090130;28;20040;-66
2022/07/01 08:55:09;;;;;;;6.13;2.00;;;17.20;99.90;;;;;;5092373;28;20031;-66
2022/07/01 08:57:34;;;;;;;2.95;1.88;;;17.20;99.90;;;;;;5090517;28;20023;-67
2022/07/01 09:00:06;;;;;;;5.78;2.00;;;17.30;99.90;;;;;;5091185;28;20028;-66
2022/07/01 09:02:56;;;;;;;4.20;2.00;;;17.20;99.90;;;;;;5090375;28;20032;-66
2022/07/01 09:05:22;;;;;;;4.00;2.08;;;17.40;99.90;;;;;;5090973;28;20504;-66
2022/07/01 09:07:54;;;;;;;4.28;2.42;;;17.50;99.90;;;;;;5090706;28;20093;-66
2022/07/01 09:10:19;;;;;;;3.55;2.10;;;17.60;99.90;;;;;;5110762;28;20038;-66
2022/07/01 09:12:46;;;;;;;4.30;2.22;;;17.70;99.90;;;;;;5111027;28;20027;-66
2022/07/01 09:15:26;;;;;;;4.15;2.00;;;17.60;99.90;;;;;;5096055;28;20028;-66
2022/07/01 09:18:04;;;;;;;2.55;1.75;;;17.70;99.90;;;;;;5091169;28;20517;-66
2022/07/01 09:20:32;;;;;;;4.75;2.00;;;17.90;99.90;;;;;;5090746;28;20024;-66
2022/07/01 09:23:02;;;;;;;2.80;1.77;;;18.00;99.90;;;;;;5090081;28;20024;-66
2022/07/01 09:25:33;;;;;;;2.03;1.40;;;18.10;99.90;;;;;;5091680;28;20028;-67
2022/07/01 09:28:08;;;;;;;2.90;1.77;;;18.10;99.90;;;;;;5089920;28;20016;-66
2022/07/01 09:30:34;;;;;;;1.88;1.60;;;18.20;99.90;;;;;;5090059;28;20031;-66
2022/07/01 09:33:10;;;;;;;5.72;2.00;;;18.20;99.90;;;;;;5096843;28;20044;-66
2022/07/01 09:35:36;;;;;;;2.35;1.92;;;18.30;99.90;;;;;;5110644;28;20024;-66
2022/07/01 09:38:03;;;;;;;3.60;1.95;;;18.20;99.90;;;;;;5074683;28;20025;-66
2022/07/01 09:40:49;;;;;;;5.10;2.10;;;18.20;99.90;;;;;;5072665;28;20020;-66
2022/07/01 09:43:35;;;;;;;3.45;2.03;;;18.20;99.90;;;;;;5084749;22;20426;-59
2022/07/01 09:46:11;;;;;;;2.67;2.20;;;18.20;99.90;;;;;;5069411;28;20473;-60
2022/07/01 09:48:36;;;;;;;3.13;1.80;;;18.40;99.90;;;;;;5069619;28;20016;-58
2022/07/01 09:51:04;;;;;;;3.40;1.58;;;18.50;99.90;;;;;;5052297;28;20029;-58
2022/07/01 09:53:30;;;;;;;3.60;1.90;;;18.50;99.90;;;;;;5069130;28;20028;-59
2022/07/01 09:55:56;;;;;;;4.00;1.52;;;18.50;99.90;;;;;;5069591;28;20104;-57
2022/07/01 09:58:22;;;;;;;5.85;1.83;;;18.70;99.90;;;;;;5069545;28;20037;-59
2022/07/01 10:00:48;;;;;;;3.13;1.95;;;19.00;99.90;;;;;;5069880;28;20029;-59
2022/07/01 10:03:14;;;;;;;4.32;2.00;;;18.80;99.90;;;;;;5069350;28;20025;-60
2022/07/01 10:05:47;;;;;;;3.50;2.28;;;18.60;99.90;;;;;;5070060;28;20104;-59
2022/07/01 10:08:37;;;;;;;3.15;2.08;;;18.80;99.90;;;;;;5069466;28;20475;-58
2022/07/01 10:11:40;;;;;;;8.43;1.95;;;19.10;99.90;;;;;;5069890;28;20031;-59
2022/07/01 10:14:07;;;;;;;11.23;2.10;;;19.30;99.90;;;;;;5069408;28;20025;-59
2022/07/01 10:16:36;;;;;;;3.22;1.92;;;19.20;99.90;;;;;;5069843;28;20135;-59
2022/07/01 10:19:20;;;;;;;2.60;1.40;;;19.10;99.90;;;;;;5069767;28;20493;-57
2022/07/01 10:21:46;;;;;;;1.98;1.42;;;19.00;99.90;;;;;;5069059;28;20112;-59
2022/07/01 10:24:13;;;;;;;4.57;1.73;;;18.80;99.90;;;;;;5069713;28;20024;-58
2022/07/01 10:26:40;;;;;;;3.35;1.27;;;18.80;99.90;;;;;;5069815;28;20028;-59
2022/07/01 10:29:25;;;;;;;1.95;1.40;;;19.00;99.90;;;;;;5070227;28;20033;-58
2022/07/01 10:31:51;;;;;;;3.35;1.75;;;19.50;99.90;;;;;;5069361;28;20048;-58
2022/07/01 10:34:18;;;;;;;5.45;1.60;;;19.90;99.90;;;;;;5069581;28;20054;-58
2022/07/01 10:36:43;;;;;;;2.92;1.80;;;19.80;99.90;;;;;;5069223;28;20089;-57
2022/07/01 10:39:13;;;;;;;4.28;2.15;;;19.60;99.90;;;;;;5070514;28;20115;-59
2022/07/01 10:41:58;;;;;;;4.90;2.17;;;19.50;99.90;;;;;;5069486;28;20112;-58
2022/07/01 10:44:25;;;;;;;3.50;1.90;;;19.30;99.90;;;;;;5069669;28;20024;-59
2022/07/01 10:46:56;;;;;;;2.85;1.58;;;19.30;99.90;;;;;;5069520;28;20490;-58
2022/07/01 10:49:37;;;;;;;4.10;1.75;;;19.30;99.90;;;;;;5069393;28;20643;-59
2022/07/01 10:52:07;;;;;;;3.67;1.77;;;19.40;99.90;;;;;;5068765;28;20032;-59
2022/07/01 10:54:36;;;;;;;3.65;1.40;;;19.30;99.90;;;;;;5068660;28;20139;-57
2022/07/01 10:59:54;;;;;;;1.33;1.23;;;20.10;99.90;;;;;;5069662;28;20024;-58
2022/07/01 11:02:23;;;;;;;5.57;1.27;;;20.20;99.90;;;;;;5070569;28;20021;-59
2022/07/01 11:05:03;;;;;;;4.20;1.70;;;20.20;99.90;;;;;;5072879;28;20021;-57
2022/07/01 11:07:32;;;;;;;3.78;1.67;;;20.20;99.90;;;;;;5072730;28;20023;-59
2022/07/01 11:09:58;;;;;;;3.60;1.83;;;20.30;99.90;;;;;;5072138;28;20025;-59
2022/07/01 11:12:24;;;;;;;7.68;1.65;;;20.90;99.90;;;;;;5072446;28;20138;-59
2022/07/01 11:14:52;;;;;;;3.53;1.45;;;20.70;99.90;;;;;;5072740;28;20025;-59
2022/07/01 11:17:19;;;;;;;2.30;1.40;;;20.90;99.90;;;;;;5073081;28;20492;-57
2022/07/01 11:19:52;;;;;;;4.57;1.63;;;21.00;99.90;;;;;;5072642;28;20032;-59
2022/07/01 11:22:21;;;;;;;3.00;1.45;;;21.10;99.90;;;;;;5072623;28;21303;-59
2022/07/01 11:24:51;;;;;;;2.83;1.35;;;21.20;99.90;;;;;;5072438;28;20661;-58
2022/07/01 11:27:17;;;;;;;3.88;1.50;;;21.30;99.90;;;;;;5072380;28;20115;-59
2022/07/01 11:29:43;;;;;;;6.45;1.80;;;21.10;99.90;;;;;;5072116;28;20037;-59
2022/07/01 11:32:08;;;;;;;3.63;1.42;;;21.40;99.90;;;;;;5072125;28;20604;-59
2022/07/01 11:34:36;;;;;;;7.43;1.90;;;21.50;99.90;;;;;;5072310;28;20028;-59
2022/07/01 11:40:11;;;;;;;5.15;1.13;;;21.20;99.90;;;;;;5075015;28;20031;-59
2022/07/01 11:42:37;;;;;;;2.03;1.83;;;20.80;99.90;;;;;;5071288;28;20077;-59
2022/07/01 11:45:03;;;;;;;5.65;1.77;;;20.60;99.90;;;;;;5072282;28;20111;-59
2022/07/01 11:47:29;;;;;;;7.03;1.70;;;20.50;99.90;;;;;;5071554;28;20024;-59
2022/07/01 11:49:56;;;;;;;1.63;1.38;;;20.40;99.90;;;;;;5072125;28;20043;-59
2022/07/01 11:52:22;;;;;;;11.45;1.70;;;20.30;99.90;;;;;;5071756;28;20031;-59
2022/07/01 11:54:50;;;;;;;1.58;1.42;;;20.20;99.90;;;;;;5071633;28;20025;-59
2022/07/01 11:57:21;;;;;;;2.95;1.58;;;20.20;99.90;;;;;;5072097;28;20054;-59
2022/07/01 11:59:48;;;;;;;3.42;1.70;;;20.20;99.90;;;;;;5072200;28;20028;-58
2022/07/01 12:02:15;;;;;;;4.20;1.45;;;20.40;99.90;;;;;;5071663;28;20540;-59
2022/07/01 12:04:42;;;;;;;3.30;1.48;;;20.60;99.90;;;;;;5071529;28;20036;-60
2022/07/01 12:07:08;;;;;;;3.28;0.98;;;21.00;99.90;;;;;;5072250;28;20035;-58
2022/07/01 12:09:35;;;;;;;5.30;1.70;;;21.10;99.90;;;;;;5071214;28;20132;-59
2022/07/01 12:12:01;;;;;;;1.40;1.00;;;20.90;99.90;;;;;;5070979;28;20042;-60
2022/07/01 12:14:31;;;;;;;3.40;1.35;;;20.90;99.90;;;;;;5071805;28;20025;-58
2022/07/01 12:17:03;;;;;;;2.17;1.00;;;21.00;99.90;;;;;;5071177;28;20025;-59
2022/07/01 12:19:38;;;;;;;4.07;1.40;;;21.70;99.90;;;;;;5071609;28;20021;-58
2022/07/01 12:22:07;;;;;;;5.88;1.02;;;21.80;99.90;;;;;;5070893;28;20032;-58
2022/07/01 12:24:33;;;;;;;2.85;1.33;;;21.80;99.90;;;;;;5071909;28;20030;-56
2022/07/01 12:26:58;;;;;;;7.63;1.05;;;22.10;99.90;;;;;;5071506;28;20039;-59
2022/07/01 12:29:27;;;;;;;4.50;0.95;;;22.30;99.90;;;;;;5071126;28;20070;-59
2022/07/01 12:32:01;;;;;;;6.97;0.98;;;22.50;99.90;;;;;;5071607;28;20436;-59
2022/07/01 12:34:48;;;;;;;1.65;0.82;;;22.40;99.90;;;;;;5071440;28;20036;-58
2022/07/01 12:37:35;;;;;;;1.83;0.70;;;22.10;99.90;;;;;;5071365;28;20090;-58
2022/07/01 12:40:02;;;;;;;2.15;0.57;;;22.30;99.90;;;;;;5071192;28;20020;-58
2022/07/01 12:42:44;;;;;;;6.43;0.77;;;22.70;99.90;;;;;;5070569;28;20064;-58
2022/07/01 12:45:12;;;;;;;2.40;0.90;;;23.10;99.90;;;;;;5070772;28;20067;-58
2022/07/01 12:47:38;;;;;;;1.02;0.73;;;23.40;99.90;;;;;;5070952;28;20035;-57
2022/07/01 12:50:23;;;;;;;1.92;0.93;;;22.90;99.90;;;;;;5071285;28;20020;-60
2022/07/01 12:52:57;;;;;;;;;;;22.40;99.90;;;;;;5051425;28;20032;-56
2022/07/01 12:55:23;;;;;;;2.85;0.75;;;22.20;99.90;;;;;;5063529;28;19920;-57
2022/07/01 12:57:51;;;;;;;1.55;0.95;;;22.30;99.90;;;;;;5070666;28;20032;-58
2022/07/01 13:00:18;;;;;;;3.03;0.90;;;22.20;99.90;;;;;;5070794;28;20021;-57
2022/07/01 13:02:43;;;;;;;4.35;0.90;;;22.60;99.90;;;;;;5070306;28;20484;-58